sensor_id;sensor_type;location;lat;lon;timestamp;pressure;altitude;pressure_sealevel;temperature;humidity
55755;BME280;41674;52.290;-1.474;2023-08-08T00:00:17;101102.12;;;14.63;63.89
55755;BME280;41674;52.290;-1.474;2023-08-08T00:02:46;101101.62;;;14.25;64.53
55755;BME280;41674;52.290;-1.474;2023-08-08T00:05:16;101099.83;;;15.16;62.85
55755;BME280;41674;52.290;-1.474;2023-08-08T00:07:45;101098.20;;;14.92;63.18
55755;BME280;41674;52.290;-1.474;2023-08-08T00:10:15;101096.25;;;15.24;61.80
55755;BME280;41674;52.290;-1.474;2023-08-08T00:12:45;101090.36;;;14.82;62.77
55755;BME280;41674;52.290;-1.474;2023-08-08T00:15:14;101088.13;;;14.68;62.38
55755;BME280;41674;52.290;-1.474;2023-08-08T00:17:44;101084.59;;;14.60;62.47
55755;BME280;41674;52.290;-1.474;2023-08-08T00:20:13;101081.67;;;14.23;63.24
55755;BME280;41674;52.290;-1.474;2023-08-08T00:22:44;101076.69;;;14.93;62.72
55755;BME280;41674;52.290;-1.474;2023-08-08T00:25:13;101074.37;;;14.76;63.36
55755;BME280;41674;52.290;-1.474;2023-08-08T00:27:42;101075.25;;;15.15;62.25
55755;BME280;41674;52.290;-1.474;2023-08-08T00:30:12;101074.36;;;15.04;62.71
55755;BME280;41674;52.290;-1.474;2023-08-08T00:32:42;101076.61;;;15.16;62.44
55755;BME280;41674;52.290;-1.474;2023-08-08T00:35:11;101072.75;;;14.56;62.99
55755;BME280;41674;52.290;-1.474;2023-08-08T00:37:41;101062.21;;;14.73;61.40
55755;BME280;41674;52.290;-1.474;2023-08-08T00:40:11;101056.54;;;14.62;62.30
55755;BME280;41674;52.290;-1.474;2023-08-08T00:42:40;101052.71;;;15.11;62.09
55755;BME280;41674;52.290;-1.474;2023-08-08T00:45:10;101055.04;;;14.64;61.87
55755;BME280;41674;52.290;-1.474;2023-08-08T00:47:40;101053.03;;;14.78;61.51
55755;BME280;41674;52.290;-1.474;2023-08-08T00:50:10;101048.02;;;14.56;62.99
55755;BME280;41674;52.290;-1.474;2023-08-08T00:52:39;101044.38;;;14.62;62.71
55755;BME280;41674;52.290;-1.474;2023-08-08T00:55:08;101041.17;;;14.63;62.31
55755;BME280;41674;52.290;-1.474;2023-08-08T00:57:38;101038.95;;;14.48;62.87
55755;BME280;41674;52.290;-1.474;2023-08-08T01:00:08;101036.73;;;14.68;61.83
55755;BME280;41674;52.290;-1.474;2023-08-08T01:02:36;101037.02;;;14.06;62.27
55755;BME280;41674;52.290;-1.474;2023-08-08T01:05:07;101028.37;;;15.04;61.12
55755;BME280;41674;52.290;-1.474;2023-08-08T01:07:42;101028.96;;;15.22;59.59
55755;BME280;41674;52.290;-1.474;2023-08-08T01:10:09;101023.79;;;15.10;59.13
55755;BME280;41674;52.290;-1.474;2023-08-08T01:12:39;101027.94;;;15.18;59.43
55755;BME280;41674;52.290;-1.474;2023-08-08T01:15:07;101028.38;;;15.42;58.55
55755;BME280;41674;52.290;-1.474;2023-08-08T01:17:35;101028.33;;;15.62;58.30
55755;BME280;41674;52.290;-1.474;2023-08-08T01:20:06;101031.00;;;14.99;59.46
55755;BME280;41674;52.290;-1.474;2023-08-08T01:22:40;101031.38;;;15.23;59.84
55755;BME280;41674;52.290;-1.474;2023-08-08T01:25:04;101028.97;;;14.71;61.13
55755;BME280;41674;52.290;-1.474;2023-08-08T01:27:32;101023.02;;;14.44;62.54
55755;BME280;41674;52.290;-1.474;2023-08-08T01:30:03;101018.60;;;14.45;63.39
55755;BME280;41674;52.290;-1.474;2023-08-08T01:32:32;101010.43;;;13.78;64.27
55755;BME280;41674;52.290;-1.474;2023-08-08T01:35:02;101013.74;;;14.59;62.91
55755;BME280;41674;52.290;-1.474;2023-08-08T01:37:36;101012.10;;;14.12;63.42
55755;BME280;41674;52.290;-1.474;2023-08-08T01:40:01;101005.28;;;14.34;63.47
55755;BME280;41674;52.290;-1.474;2023-08-08T01:42:30;101000.78;;;13.66;64.97
55755;BME280;41674;52.290;-1.474;2023-08-08T01:45:00;101004.06;;;14.34;64.40
55755;BME280;41674;52.290;-1.474;2023-08-08T01:47:30;101002.55;;;14.28;64.36
55755;BME280;41674;52.290;-1.474;2023-08-08T01:49:59;100999.87;;;14.05;65.05
55755;BME280;41674;52.290;-1.474;2023-08-08T01:52:29;100995.56;;;13.83;65.38
55755;BME280;41674;52.290;-1.474;2023-08-08T01:54:58;100995.61;;;14.11;64.42
55755;BME280;41674;52.290;-1.474;2023-08-08T01:57:28;100992.27;;;14.20;64.54
55755;BME280;41674;52.290;-1.474;2023-08-08T01:59:57;100992.29;;;13.61;65.11
55755;BME280;41674;52.290;-1.474;2023-08-08T02:02:27;100993.07;;;13.45;64.75
55755;BME280;41674;52.290;-1.474;2023-08-08T02:04:57;100992.35;;;13.79;65.17
55755;BME280;41674;52.290;-1.474;2023-08-08T02:07:26;100994.35;;;13.97;63.58
55755;BME280;41674;52.290;-1.474;2023-08-08T02:09:56;100998.07;;;13.98;62.84
55755;BME280;41674;52.290;-1.474;2023-08-08T02:12:25;100994.93;;;14.38;61.76
55755;BME280;41674;52.290;-1.474;2023-08-08T02:14:55;100997.86;;;14.49;62.13
55755;BME280;41674;52.290;-1.474;2023-08-08T02:17:25;100994.14;;;12.95;66.42
55755;BME280;41674;52.290;-1.474;2023-08-08T02:19:54;100993.16;;;14.54;63.56
55755;BME280;41674;52.290;-1.474;2023-08-08T02:22:25;100987.62;;;14.48;63.34
55755;BME280;41674;52.290;-1.474;2023-08-08T02:24:53;100977.54;;;14.42;64.18
55755;BME280;41674;52.290;-1.474;2023-08-08T02:27:23;100967.97;;;14.55;63.96
55755;BME280;41674;52.290;-1.474;2023-08-08T02:29:53;100968.76;;;14.17;65.33
55755;BME280;41674;52.290;-1.474;2023-08-08T02:32:22;100968.78;;;14.05;66.06
55755;BME280;41674;52.290;-1.474;2023-08-08T02:34:52;100968.93;;;13.74;66.23
55755;BME280;41674;52.290;-1.474;2023-08-08T02:37:22;100968.19;;;14.14;66.44
55755;BME280;41674;52.290;-1.474;2023-08-08T02:39:51;100972.74;;;14.09;66.15
55755;BME280;41674;52.290;-1.474;2023-08-08T02:42:21;100977.54;;;14.24;66.08
55755;BME280;41674;52.290;-1.474;2023-08-08T02:44:50;100974.38;;;13.72;67.05
55755;BME280;41674;52.290;-1.474;2023-08-08T02:47:20;100969.96;;;14.26;65.90
55755;BME280;41674;52.290;-1.474;2023-08-08T02:49:50;100970.42;;;14.15;66.39
55755;BME280;41674;52.290;-1.474;2023-08-08T02:52:19;100971.59;;;14.35;66.36
55755;BME280;41674;52.290;-1.474;2023-08-08T02:54:49;100970.91;;;14.01;66.69
55755;BME280;41674;52.290;-1.474;2023-08-08T02:57:18;100968.88;;;14.31;66.84
55755;BME280;41674;52.290;-1.474;2023-08-08T02:59:49;100968.70;;;14.41;66.88
55755;BME280;41674;52.290;-1.474;2023-08-08T03:02:18;100967.04;;;14.33;67.34
55755;BME280;41674;52.290;-1.474;2023-08-08T03:04:48;100970.22;;;14.23;67.71
55755;BME280;41674;52.290;-1.474;2023-08-08T03:07:17;100973.79;;;14.38;67.80
55755;BME280;41674;52.290;-1.474;2023-08-08T03:09:46;100972.49;;;13.82;69.27
55755;BME280;41674;52.290;-1.474;2023-08-08T03:12:16;100972.29;;;14.08;69.15
55755;BME280;41674;52.290;-1.474;2023-08-08T03:14:46;100969.52;;;14.01;69.16
55755;BME280;41674;52.290;-1.474;2023-08-08T03:17:15;100976.59;;;14.39;68.65
55755;BME280;41674;52.290;-1.474;2023-08-08T03:19:45;100981.61;;;14.41;68.58
55755;BME280;41674;52.290;-1.474;2023-08-08T03:22:14;100990.85;;;14.15;68.29
55755;BME280;41674;52.290;-1.474;2023-08-08T03:24:44;100992.99;;;14.12;68.79
55755;BME280;41674;52.290;-1.474;2023-08-08T03:27:14;100996.73;;;13.96;69.30
55755;BME280;41674;52.290;-1.474;2023-08-08T03:29:43;100995.49;;;14.23;68.95
55755;BME280;41674;52.290;-1.474;2023-08-08T03:32:14;100995.56;;;14.21;69.55
55755;BME280;41674;52.290;-1.474;2023-08-08T03:34:43;100991.56;;;14.44;68.64
55755;BME280;41674;52.290;-1.474;2023-08-08T03:37:13;100990.43;;;14.03;69.85
55755;BME280;41674;52.290;-1.474;2023-08-08T03:39:42;100987.02;;;14.63;69.00
55755;BME280;41674;52.290;-1.474;2023-08-08T03:42:11;100981.34;;;14.40;69.79
55755;BME280;41674;52.290;-1.474;2023-08-08T03:44:41;100975.81;;;14.30;70.34
55755;BME280;41674;52.290;-1.474;2023-08-08T03:47:11;100970.58;;;14.29;70.65
55755;BME280;41674;52.290;-1.474;2023-08-08T03:49:41;100967.16;;;14.35;70.34
55755;BME280;41674;52.290;-1.474;2023-08-08T03:52:10;100966.71;;;14.19;70.53
55755;BME280;41674;52.290;-1.474;2023-08-08T03:54:40;100968.96;;;14.52;70.32
55755;BME280;41674;52.290;-1.474;2023-08-08T03:57:09;100978.09;;;14.59;69.66
55755;BME280;41674;52.290;-1.474;2023-08-08T03:59:39;100978.98;;;14.16;70.56
55755;BME280;41674;52.290;-1.474;2023-08-08T04:02:08;100977.18;;;13.91;71.24
55755;BME280;41674;52.290;-1.474;2023-08-08T04:04:38;100979.42;;;13.73;72.15
55755;BME280;41674;52.290;-1.474;2023-08-08T04:07:07;100971.72;;;13.61;72.21
55755;BME280;41674;52.290;-1.474;2023-08-08T04:09:37;100976.87;;;13.61;72.49
55755;BME280;41674;52.290;-1.474;2023-08-08T04:12:07;100974.68;;;13.69;72.01
55755;BME280;41674;52.290;-1.474;2023-08-08T04:14:36;100976.16;;;12.95;73.88
55755;BME280;41674;52.290;-1.474;2023-08-08T04:17:06;100977.28;;;13.60;71.48
55755;BME280;41674;52.290;-1.474;2023-08-08T04:19:35;100979.20;;;14.02;71.04
55755;BME280;41674;52.290;-1.474;2023-08-08T04:22:05;100977.05;;;13.97;71.44
55755;BME280;41674;52.290;-1.474;2023-08-08T04:24:35;100975.52;;;13.47;72.77
55755;BME280;41674;52.290;-1.474;2023-08-08T04:27:04;100967.78;;;13.17;74.79
55755;BME280;41674;52.290;-1.474;2023-08-08T04:29:34;100966.71;;;12.24;77.07
55755;BME280;41674;52.290;-1.474;2023-08-08T04:32:04;100963.24;;;12.80;76.59
55755;BME280;41674;52.290;-1.474;2023-08-08T04:34:33;100964.23;;;13.22;76.67
55755;BME280;41674;52.290;-1.474;2023-08-08T04:37:03;100964.23;;;13.28;76.50
55755;BME280;41674;52.290;-1.474;2023-08-08T04:39:33;100962.04;;;13.04;78.48
55755;BME280;41674;52.290;-1.474;2023-08-08T04:42:02;100958.07;;;13.26;78.15
55755;BME280;41674;52.290;-1.474;2023-08-08T04:44:32;100965.60;;;12.24;80.77
55755;BME280;41674;52.290;-1.474;2023-08-08T04:47:01;100959.35;;;12.86;77.97
55755;BME280;41674;52.290;-1.474;2023-08-08T04:49:31;100957.88;;;12.80;78.90
55755;BME280;41674;52.290;-1.474;2023-08-08T04:52:00;100953.72;;;13.34;77.45
55755;BME280;41674;52.290;-1.474;2023-08-08T04:54:30;100960.26;;;13.40;77.57
55755;BME280;41674;52.290;-1.474;2023-08-08T04:57:00;100958.31;;;12.80;78.85
55755;BME280;41674;52.290;-1.474;2023-08-08T04:59:30;100955.44;;;12.78;79.13
55755;BME280;41674;52.290;-1.474;2023-08-08T05:01:59;100953.97;;;13.68;78.11
55755;BME280;41674;52.290;-1.474;2023-08-08T05:04:29;100952.57;;;13.37;77.61
55755;BME280;41674;52.290;-1.474;2023-08-08T05:06:58;100951.35;;;12.99;78.50
55755;BME280;41674;52.290;-1.474;2023-08-08T05:09:28;100944.01;;;13.75;76.28
55755;BME280;41674;52.290;-1.474;2023-08-08T05:11:57;100940.01;;;13.71;76.75
55755;BME280;41674;52.290;-1.474;2023-08-08T05:14:27;100946.57;;;13.17;77.39
55755;BME280;41674;52.290;-1.474;2023-08-08T05:16:57;100943.47;;;13.95;76.45
55755;BME280;41674;52.290;-1.474;2023-08-08T05:19:26;100938.77;;;13.93;76.78
55755;BME280;41674;52.290;-1.474;2023-08-08T05:21:56;100938.88;;;13.42;77.95
55755;BME280;41674;52.290;-1.474;2023-08-08T05:24:25;100936.26;;;13.97;76.51
55755;BME280;41674;52.290;-1.474;2023-08-08T05:26:55;100933.05;;;13.93;77.13
55755;BME280;41674;52.290;-1.474;2023-08-08T05:29:25;100928.54;;;14.29;76.12
55755;BME280;41674;52.290;-1.474;2023-08-08T05:31:55;100928.78;;;14.38;76.39
55755;BME280;41674;52.290;-1.474;2023-08-08T05:34:24;100926.87;;;13.86;77.93
55755;BME280;41674;52.290;-1.474;2023-08-08T05:36:53;100931.93;;;14.14;77.10
55755;BME280;41674;52.290;-1.474;2023-08-08T05:39:23;100938.10;;;13.74;78.76
55755;BME280;41674;52.290;-1.474;2023-08-08T05:41:53;100943.14;;;14.05;77.98
55755;BME280;41674;52.290;-1.474;2023-08-08T05:44:22;100944.23;;;14.21;77.82
55755;BME280;41674;52.290;-1.474;2023-08-08T05:46:52;100942.11;;;13.81;78.82
55755;BME280;41674;52.290;-1.474;2023-08-08T05:49:21;100944.65;;;14.03;78.45
55755;BME280;41674;52.290;-1.474;2023-08-08T05:51:51;100953.42;;;14.12;78.46
55755;BME280;41674;52.290;-1.474;2023-08-08T05:54:20;100958.15;;;14.40;77.36
55755;BME280;41674;52.290;-1.474;2023-08-08T05:56:50;100957.52;;;14.24;78.14
55755;BME280;41674;52.290;-1.474;2023-08-08T05:59:20;100956.81;;;14.54;77.77
55755;BME280;41674;52.290;-1.474;2023-08-08T06:01:49;100953.81;;;13.98;77.41
55755;BME280;41674;52.290;-1.474;2023-08-08T06:04:19;100951.38;;;14.14;79.25
55755;BME280;41674;52.290;-1.474;2023-08-08T06:06:48;100949.61;;;14.11;79.43
55755;BME280;41674;52.290;-1.474;2023-08-08T06:09:19;100947.19;;;13.44;80.51
55755;BME280;41674;52.290;-1.474;2023-08-08T06:11:48;100945.58;;;14.00;79.13
55755;BME280;41674;52.290;-1.474;2023-08-08T06:14:17;100946.37;;;14.40;78.08
55755;BME280;41674;52.290;-1.474;2023-08-08T06:16:47;100939.69;;;14.76;75.66
55755;BME280;41674;52.290;-1.474;2023-08-08T06:19:16;100944.96;;;14.86;76.12
55755;BME280;41674;52.290;-1.474;2023-08-08T06:21:46;100940.80;;;14.14;80.65
55755;BME280;41674;52.290;-1.474;2023-08-08T06:24:16;100933.37;;;14.21;80.82
55755;BME280;41674;52.290;-1.474;2023-08-08T06:26:45;100927.65;;;14.28;80.65
55755;BME280;41674;52.290;-1.474;2023-08-08T06:29:15;100921.92;;;13.26;83.29
55755;BME280;41674;52.290;-1.474;2023-08-08T06:31:44;100924.64;;;13.88;82.04
55755;BME280;41674;52.290;-1.474;2023-08-08T06:34:14;100931.81;;;13.89;83.04
55755;BME280;41674;52.290;-1.474;2023-08-08T06:36:44;100937.29;;;14.36;81.81
55755;BME280;41674;52.290;-1.474;2023-08-08T06:39:13;100934.34;;;13.94;81.22
55755;BME280;41674;52.290;-1.474;2023-08-08T06:41:43;100931.66;;;13.97;83.31
55755;BME280;41674;52.290;-1.474;2023-08-08T06:44:13;100928.80;;;14.41;82.27
55755;BME280;41674;52.290;-1.474;2023-08-08T06:46:43;100919.99;;;14.32;81.75
55755;BME280;41674;52.290;-1.474;2023-08-08T06:49:12;100921.43;;;14.18;81.87
55755;BME280;41674;52.290;-1.474;2023-08-08T06:51:41;100916.61;;;14.04;83.05
55755;BME280;41674;52.290;-1.474;2023-08-08T06:54:11;100913.41;;;14.29;83.41
55755;BME280;41674;52.290;-1.474;2023-08-08T06:56:41;100907.24;;;13.49;84.60
55755;BME280;41674;52.290;-1.474;2023-08-08T06:59:10;100907.08;;;14.55;82.16
55755;BME280;41674;52.290;-1.474;2023-08-08T07:01:40;100907.36;;;14.39;82.10
55755;BME280;41674;52.290;-1.474;2023-08-08T07:04:09;100911.34;;;14.43;81.44
55755;BME280;41674;52.290;-1.474;2023-08-08T07:06:39;100913.58;;;14.15;79.66
55755;BME280;41674;52.290;-1.474;2023-08-08T07:09:09;100910.19;;;14.88;80.52
55755;BME280;41674;52.290;-1.474;2023-08-08T07:11:38;100915.21;;;14.84;78.85
55755;BME280;41674;52.290;-1.474;2023-08-08T07:14:08;100918.03;;;15.83;76.44
55755;BME280;41674;52.290;-1.474;2023-08-08T07:16:37;100917.47;;;15.05;76.59
55755;BME280;41674;52.290;-1.474;2023-08-08T07:19:07;100917.85;;;15.77;75.94
55755;BME280;41674;52.290;-1.474;2023-08-08T07:21:37;100918.06;;;15.16;79.13
55755;BME280;41674;52.290;-1.474;2023-08-08T07:24:06;100919.09;;;14.94;80.31
55755;BME280;41674;52.290;-1.474;2023-08-08T07:26:36;100916.49;;;14.91;81.48
55755;BME280;41674;52.290;-1.474;2023-08-08T07:29:05;100911.40;;;14.61;82.81
55755;BME280;41674;52.290;-1.474;2023-08-08T07:31:35;100910.32;;;14.91;82.45
55755;BME280;41674;52.290;-1.474;2023-08-08T07:34:05;100911.39;;;15.44;81.68
55755;BME280;41674;52.290;-1.474;2023-08-08T07:36:34;100913.58;;;14.68;83.49
55755;BME280;41674;52.290;-1.474;2023-08-08T07:39:04;100907.95;;;14.51;84.07
55755;BME280;41674;52.290;-1.474;2023-08-08T07:41:34;100901.79;;;14.84;82.88
55755;BME280;41674;52.290;-1.474;2023-08-08T07:44:04;100905.66;;;14.19;84.32
55755;BME280;41674;52.290;-1.474;2023-08-08T07:46:32;100910.79;;;14.42;86.22
55755;BME280;41674;52.290;-1.474;2023-08-08T07:49:02;100909.49;;;14.49;85.92
55755;BME280;41674;52.290;-1.474;2023-08-08T07:51:32;100914.54;;;14.91;82.76
55755;BME280;41674;52.290;-1.474;2023-08-08T07:54:02;100915.86;;;15.11;83.04
55755;BME280;41674;52.290;-1.474;2023-08-08T07:56:31;100915.58;;;14.26;84.83
55755;BME280;41674;52.290;-1.474;2023-08-08T07:59:00;100905.34;;;14.94;83.70
55755;BME280;41674;52.290;-1.474;2023-08-08T08:01:30;100899.16;;;15.10;83.87
55755;BME280;41674;52.290;-1.474;2023-08-08T08:04:00;100895.17;;;15.26;83.31
55755;BME280;41674;52.290;-1.474;2023-08-08T08:06:29;100889.29;;;15.20;82.82
55755;BME280;41674;52.290;-1.474;2023-08-08T08:08:59;100891.47;;;15.79;82.32
55755;BME280;41674;52.290;-1.474;2023-08-08T08:11:28;100892.36;;;15.23;84.61
55755;BME280;41674;52.290;-1.474;2023-08-08T08:13:58;100892.40;;;15.57;84.20
55755;BME280;41674;52.290;-1.474;2023-08-08T08:16:28;100894.81;;;15.50;83.40
55755;BME280;41674;52.290;-1.474;2023-08-08T08:18:57;100899.66;;;15.66;82.88
55755;BME280;41674;52.290;-1.474;2023-08-08T08:21:27;100899.68;;;14.97;85.42
55755;BME280;41674;52.290;-1.474;2023-08-08T08:23:56;100896.52;;;14.81;86.27
55755;BME280;41674;52.290;-1.474;2023-08-08T08:26:26;100897.91;;;14.42;87.43
55755;BME280;41674;52.290;-1.474;2023-08-08T08:28:56;100899.45;;;14.63;89.17
55755;BME280;41674;52.290;-1.474;2023-08-08T08:31:25;100899.42;;;14.54;89.00
55755;BME280;41674;52.290;-1.474;2023-08-08T08:33:55;100902.37;;;14.31;90.67
55755;BME280;41674;52.290;-1.474;2023-08-08T08:36:24;100898.02;;;14.40;92.21
55755;BME280;41674;52.290;-1.474;2023-08-08T08:38:54;100896.54;;;14.24;92.27
55755;BME280;41674;52.290;-1.474;2023-08-08T08:41:27;100891.25;;;14.96;88.57
55755;BME280;41674;52.290;-1.474;2023-08-08T08:43:54;100891.33;;;14.65;87.15
55755;BME280;41674;52.290;-1.474;2023-08-08T08:46:26;100890.71;;;15.58;86.27
55755;BME280;41674;52.290;-1.474;2023-08-08T08:48:54;100888.85;;;15.30;84.61
55755;BME280;41674;52.290;-1.474;2023-08-08T08:51:22;100890.03;;;15.05;86.49
55755;BME280;41674;52.290;-1.474;2023-08-08T08:53:52;100891.41;;;15.24;86.37
55755;BME280;41674;52.290;-1.474;2023-08-08T08:56:21;100890.79;;;15.09;87.05
55755;BME280;41674;52.290;-1.474;2023-08-08T08:58:51;100891.27;;;14.36;89.67
55755;BME280;41674;52.290;-1.474;2023-08-08T09:01:21;100890.60;;;14.88;88.11
55755;BME280;41674;52.290;-1.474;2023-08-08T09:03:50;100888.71;;;15.00;86.90
55755;BME280;41674;52.290;-1.474;2023-08-08T09:06:20;100892.56;;;15.82;83.46
55755;BME280;41674;52.290;-1.474;2023-08-08T09:08:49;100893.56;;;15.98;81.89
55755;BME280;41674;52.290;-1.474;2023-08-08T09:11:19;100889.14;;;16.31;81.11
55755;BME280;41674;52.290;-1.474;2023-08-08T09:13:48;100887.70;;;15.94;82.87
55755;BME280;41674;52.290;-1.474;2023-08-08T09:16:18;100889.32;;;15.91;83.27
55755;BME280;41674;52.290;-1.474;2023-08-08T09:18:47;100891.16;;;15.50;84.50
55755;BME280;41674;52.290;-1.474;2023-08-08T09:21:18;100889.08;;;16.11;82.46
55755;BME280;41674;52.290;-1.474;2023-08-08T09:23:47;100884.12;;;16.42;79.85
55755;BME280;41674;52.290;-1.474;2023-08-08T09:26:16;100884.02;;;16.74;80.46
55755;BME280;41674;52.290;-1.474;2023-08-08T09:28:46;100882.45;;;17.33;77.12
55755;BME280;41674;52.290;-1.474;2023-08-08T09:31:16;100879.07;;;17.39;76.15
55755;BME280;41674;52.290;-1.474;2023-08-08T09:33:45;100877.64;;;17.48;77.30
55755;BME280;41674;52.290;-1.474;2023-08-08T09:36:15;100873.46;;;17.63;75.90
55755;BME280;41674;52.290;-1.474;2023-08-08T09:38:44;100863.02;;;18.25;72.48
55755;BME280;41674;52.290;-1.474;2023-08-08T09:41:13;100863.81;;;17.14;75.67
55755;BME280;41674;52.290;-1.474;2023-08-08T09:43:44;100865.97;;;17.30;74.13
55755;BME280;41674;52.290;-1.474;2023-08-08T09:46:13;100866.65;;;16.92;72.97
55755;BME280;41674;52.290;-1.474;2023-08-08T09:48:42;100864.74;;;17.05;73.88
55755;BME280;41674;52.290;-1.474;2023-08-08T09:51:12;100865.12;;;16.83;71.28
55755;BME280;41674;52.290;-1.474;2023-08-08T09:53:41;100861.38;;;17.55;66.09
55755;BME280;41674;52.290;-1.474;2023-08-08T09:56:12;100858.24;;;17.61;66.19
55755;BME280;41674;52.290;-1.474;2023-08-08T09:58:41;100859.10;;;18.05;61.66
55755;BME280;41674;52.290;-1.474;2023-08-08T10:01:10;100857.17;;;18.94;60.08
55755;BME280;41674;52.290;-1.474;2023-08-08T10:03:41;100850.66;;;19.27;58.80
55755;BME280;41674;52.290;-1.474;2023-08-08T10:06:09;100846.46;;;19.09;59.21
55755;BME280;41674;52.290;-1.474;2023-08-08T10:08:39;100844.81;;;19.32;55.73
55755;BME280;41674;52.290;-1.474;2023-08-08T10:11:08;100844.79;;;17.72;58.01
55755;BME280;41674;52.290;-1.474;2023-08-08T10:13:46;100841.12;;;18.28;57.83
55755;BME280;41674;52.290;-1.474;2023-08-08T10:16:08;100838.55;;;18.37;57.31
55755;BME280;41674;52.290;-1.474;2023-08-08T10:18:37;100841.13;;;19.25;55.02
55755;BME280;41674;52.290;-1.474;2023-08-08T10:21:07;100844.58;;;19.41;53.05
55755;BME280;41674;52.290;-1.474;2023-08-08T10:23:37;100848.46;;;19.80;53.77
55755;BME280;41674;52.290;-1.474;2023-08-08T10:26:17;100851.93;;;19.21;55.63
55755;BME280;41674;52.290;-1.474;2023-08-08T10:28:35;100856.64;;;18.24;57.51
55755;BME280;41674;52.290;-1.474;2023-08-08T10:31:04;100856.02;;;17.85;59.37
55755;BME280;41674;52.290;-1.474;2023-08-08T10:33:40;100846.19;;;18.17;60.27
55755;BME280;41674;52.290;-1.474;2023-08-08T10:36:05;100840.64;;;18.16;59.39
55755;BME280;41674;52.290;-1.474;2023-08-08T10:38:41;100840.08;;;17.47;61.98
55755;BME280;41674;52.290;-1.474;2023-08-08T10:41:03;100842.68;;;17.82;62.42
55755;BME280;41674;52.290;-1.474;2023-08-08T10:43:32;100844.58;;;17.81;64.34
55755;BME280;41674;52.290;-1.474;2023-08-08T10:46:03;100853.21;;;17.06;66.74
55755;BME280;41674;52.290;-1.474;2023-08-08T10:48:31;100853.84;;;17.40;68.07
55755;BME280;41674;52.290;-1.474;2023-08-08T10:51:01;100859.50;;;16.01;71.94
55755;BME280;41674;52.290;-1.474;2023-08-08T10:53:31;100867.15;;;15.93;75.82
55755;BME280;41674;52.290;-1.474;2023-08-08T10:56:02;100865.58;;;16.21;74.31
55755;BME280;41674;52.290;-1.474;2023-08-08T10:58:36;100862.53;;;17.06;74.29
55755;BME280;41674;52.290;-1.474;2023-08-08T11:00:59;100863.74;;;16.96;73.02
55755;BME280;41674;52.290;-1.474;2023-08-08T11:03:30;100861.82;;;17.17;72.06
55755;BME280;41674;52.290;-1.474;2023-08-08T11:05:58;100852.46;;;17.33;71.72
55755;BME280;41674;52.290;-1.474;2023-08-08T11:08:29;100847.00;;;16.84;74.73
55755;BME280;41674;52.290;-1.474;2023-08-08T11:10:58;100854.33;;;16.10;78.65
55755;BME280;41674;52.290;-1.474;2023-08-08T11:13:28;100853.19;;;16.36;79.51
55755;BME280;41674;52.290;-1.474;2023-08-08T11:15:57;100855.25;;;17.01;79.91
55755;BME280;41674;52.290;-1.474;2023-08-08T11:18:26;100850.48;;;17.26;80.39
55755;BME280;41674;52.290;-1.474;2023-08-08T11:20:56;100842.03;;;17.91;77.89
55755;BME280;41674;52.290;-1.474;2023-08-08T11:23:25;100835.15;;;17.85;77.56
55755;BME280;41674;52.290;-1.474;2023-08-08T11:25:57;100837.21;;;17.55;78.27
55755;BME280;41674;52.290;-1.474;2023-08-08T11:28:24;100836.63;;;17.64;77.24
55755;BME280;41674;52.290;-1.474;2023-08-08T11:30:54;100835.14;;;17.65;78.27
55755;BME280;41674;52.290;-1.474;2023-08-08T11:33:25;100835.72;;;17.49;81.13
55755;BME280;41674;52.290;-1.474;2023-08-08T11:35:54;100840.32;;;17.98;79.23
55755;BME280;41674;52.290;-1.474;2023-08-08T11:38:23;100838.50;;;17.67;78.63
55755;BME280;41674;52.290;-1.474;2023-08-08T11:40:52;100836.99;;;17.90;79.22
55755;BME280;41674;52.290;-1.474;2023-08-08T11:43:22;100834.80;;;18.15;79.45
55755;BME280;41674;52.290;-1.474;2023-08-08T11:45:53;100832.44;;;18.24;75.56
55755;BME280;41674;52.290;-1.474;2023-08-08T11:48:21;100829.15;;;18.51;75.76
55755;BME280;41674;52.290;-1.474;2023-08-08T11:50:53;100826.70;;;18.19;76.72
55755;BME280;41674;52.290;-1.474;2023-08-08T11:53:20;100824.73;;;17.43;79.68
55755;BME280;41674;52.290;-1.474;2023-08-08T11:58:19;100818.35;;;18.85;74.43
55755;BME280;41674;52.290;-1.474;2023-08-08T12:00:49;100821.39;;;17.38;80.66
55755;BME280;41674;52.290;-1.474;2023-08-08T12:03:19;100824.13;;;17.71;78.11
55755;BME280;41674;52.290;-1.474;2023-08-08T12:05:48;100823.14;;;18.13;77.61
55755;BME280;41674;52.290;-1.474;2023-08-08T12:08:18;100824.64;;;18.25;76.76
55755;BME280;41674;52.290;-1.474;2023-08-08T12:10:49;100825.35;;;18.78;75.38
55755;BME280;41674;52.290;-1.474;2023-08-08T12:13:20;100820.47;;;18.90;75.17
55755;BME280;41674;52.290;-1.474;2023-08-08T12:18:16;100815.28;;;18.80;76.75
55755;BME280;41674;52.290;-1.474;2023-08-08T12:20:46;100813.86;;;18.77;78.24
55755;BME280;41674;52.290;-1.474;2023-08-08T12:23:15;100815.97;;;18.23;78.43
55755;BME280;41674;52.290;-1.474;2023-08-08T12:25:46;100813.24;;;17.93;78.97
55755;BME280;41674;52.290;-1.474;2023-08-08T12:28:14;100814.31;;;17.57;80.92
55755;BME280;41674;52.290;-1.474;2023-08-08T12:30:43;100812.69;;;17.36;83.26
55755;BME280;41674;52.290;-1.474;2023-08-08T12:33:13;100807.61;;;17.36;83.42
55755;BME280;41674;52.290;-1.474;2023-08-08T12:35:43;100803.30;;;16.64;87.71
55755;BME280;41674;52.290;-1.474;2023-08-08T12:38:12;100798.63;;;16.98;86.02
55755;BME280;41674;52.290;-1.474;2023-08-08T12:40:42;100794.25;;;17.73;84.46
55755;BME280;41674;52.290;-1.474;2023-08-08T12:43:11;100795.57;;;16.63;88.42
55755;BME280;41674;52.290;-1.474;2023-08-08T12:45:41;100792.77;;;16.94;89.14
55755;BME280;41674;52.290;-1.474;2023-08-08T12:48:10;100793.02;;;17.66;85.93
55755;BME280;41674;52.290;-1.474;2023-08-08T12:50:40;100789.42;;;17.13;86.97
55755;BME280;41674;52.290;-1.474;2023-08-08T12:53:10;100785.90;;;16.52;88.68
55755;BME280;41674;52.290;-1.474;2023-08-08T12:55:39;100798.42;;;14.94;98.54